Lanai City, HI

2:43 PM HST on January 28, 2015 (GMT -1000)
Miki Basin | Change Station
CLOSE
Current Station
Personal Weather Station
Location: Lanai City, HI
Elevation: 1250 ft
Nearby Weather Stations

Elev 1250 ft 20.79 °N, 156.93 °W | Updated 3 minutes ago

Overcast
Overcast
75.0 °F
Feels Like 77 °F
N
5.8
Wind Variable Wind from NW

Today
High -- | Low -- °F
--% Chance of Precip.
Yesterday
High -- | Low -- °F
Precip. -- in
7:05 AM 6:16 PM
Waxing Gibbous, 69% visible
Pressure 29.91 in
Visibility 10.0 miles
Clouds Overcast 4900 ft
Heat Index 77 °F
Dew Point 63 °F
Humidity 66%
Rainfall 0.00 in
Snow Depth Not available.
UV 2 out of 12
Pollen Not available.
Air Quality Not available.
Flu Activity Not available.
METAR PHNY 282356Z AUTO 28007KT 10SM OVC049 26/17 A2997 RMK AO2 TSNO 58022 T02550166 10272 20183 SLP128 $

More Conditions Fewer Conditions

Pressure 29.91 in
Visibility 10.0 miles
Clouds Overcast 4900 ft
Heat Index 77 °F
Dew Point 63 °F
Humidity 66%
Rainfall 0.00 in
Snow Depth Not available.
UV 2 out of 12
Pollen Not available.
Air Quality Not available.
Flu Activity Not available.
METAR PHNY 282356Z AUTO 28007KT 10SM OVC049 26/17 A2997 RMK AO2 TSNO 58022 T02550166 10272 20183 SLP128 $

More Conditions Fewer Conditions

10-Day Weather Forecast

Almanac

Astronomy

Jan. 28, 2015 Rise Set
Actual Time
Civil Twilight
Nautical Twilight
Astronomical Twilight
Moon
Length of Visible Light
Length of Day
Tomorrow will be .
, % of the Moon is Illuminated

Today's Extremes

State Highs State Lows

Community

WunderPhotos

Upload Photos

1,791,310 photos uploaded!

WunderBlogs® & News

Nearby

Air Quality

  Air Quality AQ Index Pollutant
Not available.

Snow Depth

Station Depth Elevation

Earthquake Activity

City Distance Mag. Time & Date
Minimum magnitude displayed is 2.5.

Coastal Water Temperatures

Place Temperature

Nearby Weather Stations